Rancho Haven, Nevada
Current Conditions -  °F | °C
As of 2:15 PM on Friday 24 Oct 2014 (Local Time) from KRTS Reporting Station
Clear Clear  
Wind Chill: 75°   Ceiling: Unl
Heat Index: 75°   Visibility: 10mi
Dew Point: 18°   Wind: 17mph
Humidity: 11%   Direction: 210°SSW
Pressure: 30"   Gusts: 24mph
Location:  39.7378°N, 119.889°W
Report Text: KRTS 242115Z AUTO 21015G21KT 170V240 10SM CLR 24/M08 A3000 RMK AO2
Loading
Personal Weather Stations






























Interactive Weather Map
Tropical Storm Tracking
New forecast layout! Learn more

10-Day Weather Forecast

Advertisements
Track Severe Weather on mobile